createdAt,value
2022-07-31T00:01:21.848Z,100070.59
2022-07-31T00:03:52.818Z,100066.94
2022-07-31T00:06:23.974Z,100066.16
2022-07-31T00:08:55.046Z,100066.56
2022-07-31T00:11:28.467Z,100067.03
2022-07-31T00:14:00.432Z,100060.50
2022-07-31T00:16:32.211Z,100062.19
2022-07-31T00:19:03.823Z,100059.78
2022-07-31T00:21:35.253Z,100053.72
2022-07-31T00:24:06.458Z,100057.03
2022-07-31T00:26:40.119Z,100054.19
2022-07-31T00:29:12.379Z,100052.56
2022-07-31T00:31:47.688Z,100054.22
2022-07-31T00:34:18.642Z,100060.81
2022-07-31T00:36:51.387Z,100059.22
2022-07-31T00:39:24.923Z,100060.06
2022-07-31T00:41:58.786Z,100063.38
2022-07-31T00:44:31.531Z,100058.50
2022-07-31T00:47:03.096Z,100060.97
2022-07-31T00:49:37.533Z,100060.63
2022-07-31T00:52:12.831Z,100056.97
2022-07-31T00:54:44.152Z,100055.34
2022-07-31T00:57:16.886Z,100057.41
2022-07-31T00:59:48.198Z,100063.13
2022-07-31T01:02:19.590Z,100067.66
2022-07-31T01:04:50.109Z,100063.19
2022-07-31T01:07:21.283Z,100058.72
2022-07-31T01:09:54.270Z,100060.75
2022-07-31T01:12:36.438Z,100055.06
2022-07-31T01:15:14.900Z,100055.50
2022-07-31T01:17:49.027Z,100054.69
2022-07-31T01:20:20.554Z,100050.69
2022-07-31T01:23:34.202Z,100055.22
2022-07-31T01:26:22.452Z,100051.19
2022-07-31T01:29:21.794Z,100059.38
2022-07-31T01:32:05.165Z,100046.81
2022-07-31T01:34:45.005Z,100049.66
2022-07-31T01:37:25.011Z,100047.22
2022-07-31T01:40:05.043Z,100047.22
2022-07-31T01:42:41.068Z,100048.13
2022-07-31T01:45:18.542Z,100047.31
2022-07-31T01:47:51.961Z,100048.53
2022-07-31T01:50:43.987Z,100049.78
2022-07-31T01:53:20.452Z,100040.88
2022-07-31T01:56:02.249Z,100049.84
2022-07-31T01:58:39.058Z,100048.22
2022-07-31T02:01:16.121Z,100040.13
2022-07-31T02:03:51.298Z,100034.91
2022-07-31T02:06:26.202Z,100038.59
2022-07-31T02:09:00.369Z,100038.22
2022-07-31T02:11:32.373Z,100035.00
2022-07-31T02:14:05.984Z,100028.97
2022-07-31T02:16:40.911Z,100035.88
2022-07-31T02:19:14.205Z,100035.03
2022-07-31T02:21:46.132Z,100031.41
2022-07-31T02:24:17.906Z,100032.63
2022-07-31T02:26:51.742Z,100035.09
2022-07-31T02:29:25.525Z,100026.56
2022-07-31T02:32:11.580Z,100026.13
2022-07-31T02:34:45.398Z,100024.09
2022-07-31T02:37:18.756Z,100026.94
2022-07-31T02:39:50.836Z,100025.72
2022-07-31T02:42:24.808Z,100016.34
2022-07-31T02:44:56.542Z,100025.72
2022-07-31T02:47:30.291Z,100024.88
2022-07-31T02:50:09.416Z,100027.75
2022-07-31T02:52:40.976Z,100025.78
2022-07-31T02:55:13.240Z,100027.41
2022-07-31T02:57:49.220Z,100027.81
2022-07-31T03:00:28.179Z,100029.88
2022-07-31T03:03:00.968Z,100028.25
2022-07-31T03:05:31.894Z,100023.41
2022-07-31T03:08:03.236Z,100024.25
2022-07-31T03:10:34.853Z,100025.47
2022-07-31T03:13:07.989Z,100024.25
2022-07-31T03:15:42.124Z,100022.25
2022-07-31T03:18:24.237Z,100027.56
2022-07-31T03:20:56.844Z,100027.19
2022-07-31T03:23:36.768Z,100031.28
2022-07-31T03:26:09.067Z,100024.41
2022-07-31T03:28:40.261Z,100037.03
2022-07-31T03:31:11.506Z,100022.00
2022-07-31T03:33:45.232Z,100019.59
2022-07-31T03:36:16.463Z,100023.69
2022-07-31T03:38:50.406Z,100021.63
2022-07-31T03:41:22.055Z,100030.63
2022-07-31T03:43:54.042Z,100029.00
2022-07-31T03:46:28.293Z,100026.56
2022-07-31T03:49:04.268Z,100032.25
2022-07-31T03:51:36.608Z,100035.94
2022-07-31T03:54:08.430Z,100031.84
2022-07-31T03:56:41.278Z,100032.22
2022-07-31T03:59:18.771Z,100035.06
2022-07-31T04:02:07.541Z,100033.03
2022-07-31T04:04:44.211Z,100041.56
2022-07-31T04:07:15.289Z,100036.25
2022-07-31T04:09:46.671Z,100040.25
2022-07-31T04:12:17.184Z,100039.81
2022-07-31T04:14:47.998Z,100037.34
2022-07-31T04:17:19.154Z,100033.25
2022-07-31T04:20:00.071Z,100038.50
2022-07-31T04:22:33.595Z,100036.47
2022-07-31T04:25:05.333Z,100038.88
2022-07-31T04:27:48.073Z,100040.06
2022-07-31T04:30:20.760Z,100036.78
2022-07-31T04:32:52.472Z,100042.03
2022-07-31T04:35:26.832Z,100039.19
2022-07-31T04:37:57.966Z,100043.19
2022-07-31T04:40:29.193Z,100043.59
2022-07-31T04:43:01.326Z,100047.63
2022-07-31T04:45:32.687Z,100045.97
2022-07-31T04:48:04.801Z,100046.69
2022-07-31T04:50:39.574Z,100048.22
2022-07-31T04:53:10.980Z,100047.38
2022-07-31T04:55:41.309Z,100045.69
2022-07-31T04:58:20.858Z,100043.16
2022-07-31T05:00:51.568Z,100046.28
2022-07-31T05:03:22.497Z,100034.41
2022-07-31T05:05:55.907Z,100034.72
2022-07-31T05:08:29.413Z,100028.03
2022-07-31T05:11:16.946Z,100023.09
2022-07-31T05:13:48.277Z,100022.66
2022-07-31T05:16:19.579Z,100021.00
2022-07-31T05:18:52.097Z,100021.00
2022-07-31T05:21:32.712Z,100026.25
2022-07-31T05:24:05.431Z,100022.97
2022-07-31T05:26:36.561Z,100020.94
2022-07-31T05:29:08.242Z,100018.47
2022-07-31T05:31:39.781Z,100014.34
2022-07-31T05:34:32.613Z,100009.38
2022-07-31T05:37:05.891Z,100006.81
2022-07-31T05:39:37.144Z,100013.59
2022-07-31T05:42:09.256Z,100003.31
2022-07-31T05:44:43.032Z,100006.44
2022-07-31T05:47:14.239Z,100003.41
2022-07-31T05:49:46.010Z,100006.19
2022-07-31T05:52:21.374Z,100010.22
2022-07-31T05:54:52.043Z,100015.09
2022-07-31T05:57:33.048Z,99998.00
2022-07-31T06:00:05.470Z,100004.47
2022-07-31T06:02:36.286Z,100006.41
2022-07-31T06:05:07.772Z,100003.47
2022-07-31T06:07:41.198Z,100004.66
2022-07-31T06:10:22.671Z,99998.88
2022-07-31T06:12:54.249Z,100005.63
2022-07-31T06:15:26.872Z,100006.72
2022-07-31T06:17:59.842Z,100019.19
2022-07-31T06:20:32.057Z,100019.56
2022-07-31T06:23:14.518Z,100013.41
2022-07-31T06:25:53.937Z,100014.22
2022-07-31T06:28:36.585Z,100007.25
2022-07-31T06:31:20.500Z,100014.94
2022-07-31T06:33:52.750Z,100006.72
2022-07-31T06:36:24.565Z,100015.19
2022-07-31T06:38:58.033Z,100011.84
2022-07-31T06:41:47.908Z,100014.16
2022-07-31T06:44:19.898Z,100009.97
2022-07-31T06:46:52.703Z,100012.19
2022-07-31T06:49:23.811Z,100016.94
2022-07-31T06:51:55.141Z,100019.22
2022-07-31T06:54:28.563Z,100014.56
2022-07-31T06:57:00.197Z,100009.69
2022-07-31T06:59:39.300Z,100022.34
2022-07-31T07:02:12.111Z,100015.38
2022-07-31T07:04:58.402Z,100018.97
2022-07-31T07:07:33.499Z,100017.63
2022-07-31T07:10:10.647Z,100016.63
2022-07-31T07:12:42.348Z,100013.25
2022-07-31T07:15:14.446Z,100018.41
2022-07-31T07:17:44.583Z,100019.84
2022-07-31T07:20:15.521Z,100024.53
2022-07-31T07:22:45.928Z,100029.22
2022-07-31T07:25:21.237Z,100027.44
2022-07-31T07:27:52.192Z,100025.19
2022-07-31T07:30:24.090Z,100026.69
2022-07-31T07:32:55.229Z,100029.81
2022-07-31T07:35:28.571Z,100027.66
2022-07-31T07:38:00.322Z,100024.69
2022-07-31T07:40:34.117Z,100028.63
2022-07-31T07:43:11.484Z,100022.31
2022-07-31T07:46:01.233Z,100026.78
2022-07-31T07:48:32.346Z,100023.03
2022-07-31T07:51:02.936Z,100020.84
2022-07-31T07:53:51.696Z,100016.28
2022-07-31T07:57:11.207Z,100011.72
2022-07-31T08:00:11.726Z,100019.84
2022-07-31T08:02:44.873Z,100016.09
2022-07-31T08:05:34.661Z,100003.72
2022-07-31T08:10:52.439Z,100001.81
2022-07-31T08:13:27.410Z,100002.84
2022-07-31T08:15:58.738Z,99993.00
2022-07-31T08:18:32.756Z,100009.59
2022-07-31T08:21:07.777Z,100008.22
2022-07-31T08:23:40.931Z,99999.19
2022-07-31T08:26:13.853Z,99993.81
2022-07-31T08:28:50.774Z,99993.00
2022-07-31T08:31:24.435Z,99996.31
2022-07-31T08:33:56.281Z,99998.72
2022-07-31T08:36:30.097Z,99995.75
2022-07-31T08:39:04.466Z,99995.66
2022-07-31T08:41:40.603Z,99996.31
2022-07-31T08:44:14.935Z,99999.53
2022-07-31T08:47:14.293Z,99995.44
2022-07-31T08:50:24.595Z,99990.06
2022-07-31T08:53:10.883Z,99990.72
2022-07-31T08:55:56.794Z,99989.81
2022-07-31T08:58:30.052Z,99989.69
2022-07-31T09:01:11.426Z,99984.66
2022-07-31T09:03:43.423Z,99990.72
2022-07-31T09:06:16.651Z,99978.03
2022-07-31T09:08:50.051Z,99976.72
2022-07-31T09:11:21.606Z,99979.94
2022-07-31T09:14:02.445Z,99972.03
2022-07-31T09:16:48.089Z,99969.19
2022-07-31T09:19:52.396Z,99975.03
2022-07-31T09:22:11.060Z,99972.59
2022-07-31T09:24:42.005Z,99968.16
2022-07-31T09:27:15.097Z,99971.00
2022-07-31T09:30:00.267Z,99964.50
2022-07-31T09:32:31.926Z,99961.16
2022-07-31T09:35:16.055Z,99955.91
2022-07-31T09:37:50.374Z,99950.19
2022-07-31T09:40:21.488Z,99962.75
2022-07-31T09:42:55.439Z,99947.19
2022-07-31T09:45:27.564Z,99945.81
2022-07-31T09:48:17.101Z,99946.16
2022-07-31T09:50:58.699Z,99947.75
2022-07-31T09:53:30.764Z,99952.22
2022-07-31T09:56:02.572Z,99946.50
2022-07-31T09:58:33.578Z,99945.69
2022-07-31T10:01:08.375Z,99941.56
2022-07-31T10:03:43.327Z,99941.91
2022-07-31T10:06:16.757Z,99944.63
2022-07-31T10:08:48.417Z,99943.72
2022-07-31T10:11:23.026Z,99934.66
2022-07-31T10:13:59.289Z,99939.94
2022-07-31T10:16:35.580Z,99937.06
2022-07-31T10:19:12.188Z,99942.31
2022-07-31T10:21:46.668Z,99935.38
2022-07-31T10:24:18.563Z,99939.84
2022-07-31T10:27:01.609Z,99932.84
2022-07-31T10:29:38.954Z,99936.38
2022-07-31T10:32:11.042Z,99934.31
2022-07-31T10:34:44.856Z,99938.78
2022-07-31T10:37:23.949Z,99941.66
2022-07-31T10:40:07.023Z,99936.72
2022-07-31T10:43:22.034Z,99926.66
2022-07-31T10:45:56.304Z,99928.38
2022-07-31T10:48:27.729Z,99925.84
2022-07-31T10:51:08.071Z,99928.72
2022-07-31T10:53:51.469Z,99922.19
2022-07-31T10:56:26.370Z,99924.25
2022-07-31T10:58:59.290Z,99923.00
2022-07-31T11:01:30.287Z,99930.78
2022-07-31T11:04:06.531Z,99915.97
2022-07-31T11:06:49.866Z,99920.44
2022-07-31T11:09:26.827Z,99924.13
2022-07-31T11:11:58.993Z,99913.13
2022-07-31T11:14:41.340Z,99900.88
2022-07-31T11:17:15.520Z,99911.66
2022-07-31T11:19:48.525Z,99906.34
2022-07-31T11:22:32.280Z,99900.63
2022-07-31T11:25:03.486Z,99907.16
2022-07-31T11:27:35.029Z,99905.91
2022-07-31T11:30:13.721Z,99892.41
2022-07-31T11:32:50.462Z,99898.13
2022-07-31T11:35:35.015Z,99900.19
2022-07-31T11:38:07.348Z,99895.69
2022-07-31T11:40:38.672Z,99898.56
2022-07-31T11:43:25.712Z,99899.03
2022-07-31T11:45:58.245Z,99898.69
2022-07-31T11:48:39.008Z,99892.97
2022-07-31T11:51:12.200Z,99890.56
2022-07-31T11:54:00.758Z,99902.03
2022-07-31T11:56:32.774Z,99895.50
2022-07-31T11:59:03.339Z,99892.66
2022-07-31T12:01:36.632Z,99899.16
2022-07-31T12:04:11.416Z,99892.19
2022-07-31T12:06:43.165Z,99906.03
2022-07-31T12:10:02.710Z,99897.56
2022-07-31T12:12:12.195Z,99897.34
2022-07-31T12:14:43.731Z,99893.69
2022-07-31T12:17:24.666Z,99889.25
2022-07-31T12:19:58.180Z,99891.28
2022-07-31T12:22:29.161Z,99886.38
2022-07-31T12:25:13.227Z,99891.63
2022-07-31T12:27:44.424Z,99896.09
2022-07-31T12:30:30.194Z,99884.78
2022-07-31T12:33:09.530Z,99891.88
2022-07-31T12:35:56.503Z,99888.34
2022-07-31T12:38:45.575Z,99888.81
2022-07-31T12:41:21.953Z,99891.00
2022-07-31T12:43:52.841Z,99885.75
2022-07-31T12:46:36.420Z,99889.38
2022-07-31T12:49:08.822Z,99891.94
2022-07-31T12:51:45.206Z,99883.00
2022-07-31T12:54:19.418Z,99879.34
2022-07-31T12:56:52.307Z,99879.81
2022-07-31T12:59:23.388Z,99879.47
2022-07-31T13:01:54.682Z,99880.72
2022-07-31T13:04:25.769Z,99885.78
2022-07-31T13:06:56.758Z,99881.75
2022-07-31T13:09:27.854Z,99884.72
2022-07-31T13:12:00.940Z,99883.94
2022-07-31T13:14:32.672Z,99877.38
2022-07-31T13:17:03.920Z,99887.56
2022-07-31T13:19:35.533Z,99882.66
2022-07-31T13:22:06.177Z,99886.78
2022-07-31T13:24:36.920Z,99883.13
2022-07-31T13:27:09.775Z,99875.81
2022-07-31T13:29:40.553Z,99874.66
2022-07-31T13:32:11.474Z,99874.66
2022-07-31T13:34:42.923Z,99877.22
2022-07-31T13:37:13.635Z,99871.13
2022-07-31T13:39:44.769Z,99867.94
2022-07-31T13:42:16.912Z,99862.22
2022-07-31T13:44:49.099Z,99874.13
2022-07-31T13:47:20.140Z,99872.97
2022-07-31T13:49:50.194Z,99867.84
2022-07-31T13:52:21.129Z,99856.66
2022-07-31T13:54:52.049Z,99868.19
2022-07-31T13:57:27.261Z,99870.38
2022-07-31T13:59:58.033Z,99867.28
2022-07-31T14:02:29.023Z,99873.47
2022-07-31T14:04:59.855Z,99869.47
2022-07-31T14:07:45.715Z,99871.94
2022-07-31T14:10:22.707Z,99865.44
2022-07-31T14:12:55.903Z,99856.06
2022-07-31T14:15:30.261Z,99863.03
2022-07-31T14:18:04.234Z,99865.09
2022-07-31T14:20:38.145Z,99863.16
2022-07-31T14:23:09.829Z,99871.84
2022-07-31T14:25:41.766Z,99855.16
2022-07-31T14:28:14.370Z,99860.53
2022-07-31T14:30:46.847Z,99857.78
2022-07-31T14:33:20.612Z,99861.09
2022-07-31T14:35:54.647Z,99862.00
2022-07-31T14:38:27.490Z,99859.75
2022-07-31T14:40:58.721Z,99860.66
2022-07-31T14:43:31.512Z,99851.72
2022-07-31T14:46:02.236Z,99850.94
2022-07-31T14:48:32.948Z,99855.84
2022-07-31T14:51:03.831Z,99857.91
2022-07-31T14:53:34.568Z,99856.31
2022-07-31T14:56:05.767Z,99853.09
2022-07-31T14:58:57.488Z,99844.53
2022-07-31T15:01:30.738Z,99842.56
2022-07-31T15:04:02.585Z,99845.09
2022-07-31T15:06:39.412Z,99845.19
2022-07-31T15:09:29.431Z,99837.97
2022-07-31T15:12:02.947Z,99845.75
2022-07-31T15:14:35.894Z,99841.75
2022-07-31T15:17:06.588Z,99845.03
2022-07-31T15:19:37.667Z,99846.75
2022-07-31T15:22:11.082Z,99840.25
2022-07-31T15:24:48.836Z,99841.94
2022-07-31T15:27:22.249Z,99842.41
2022-07-31T15:30:05.641Z,99835.56
2022-07-31T15:32:39.543Z,99850.75
2022-07-31T15:35:15.128Z,99849.16
2022-07-31T15:37:50.055Z,99844.31
2022-07-31T15:40:21.300Z,99852.91
2022-07-31T15:42:52.096Z,99839.09
2022-07-31T15:45:25.919Z,99843.66
2022-07-31T15:47:56.741Z,99843.31
2022-07-31T15:50:27.021Z,99840.09
2022-07-31T15:52:58.356Z,99838.16
2022-07-31T15:55:29.318Z,99840.66
2022-07-31T15:58:00.548Z,99832.22
2022-07-31T16:00:33.096Z,99831.03
2022-07-31T16:03:04.704Z,99836.50
2022-07-31T16:05:38.750Z,99837.75
2022-07-31T16:08:31.806Z,99840.25
2022-07-31T16:11:01.837Z,99835.81
2022-07-31T16:13:36.803Z,99833.84
2022-07-31T16:16:10.775Z,99841.25
2022-07-31T16:18:42.533Z,99838.06
2022-07-31T16:21:13.452Z,99832.00
2022-07-31T16:23:44.433Z,99841.38
2022-07-31T16:26:15.124Z,99840.66
2022-07-31T16:28:45.553Z,99844.44
2022-07-31T16:31:48.219Z,99842.47
2022-07-31T16:34:21.428Z,99836.06
2022-07-31T16:36:56.083Z,99840.16
2022-07-31T16:42:55.351Z,99837.88
2022-07-31T16:45:26.610Z,99834.31
2022-07-31T16:48:33.928Z,99847.91
2022-07-31T16:51:05.065Z,99842.72
2022-07-31T16:54:13.880Z,99846.03
2022-07-31T16:56:26.560Z,99857.88
2022-07-31T16:58:59.923Z,99866.50
2022-07-31T17:01:58.785Z,99857.25
2022-07-31T17:04:23.991Z,99855.66
2022-07-31T17:06:55.209Z,99859.75
2022-07-31T17:09:26.185Z,99865.44
2022-07-31T17:11:58.953Z,99868.31
2022-07-31T17:14:31.391Z,99872.41
2022-07-31T17:17:02.607Z,99871.16
2022-07-31T17:19:45.178Z,99871.94
2022-07-31T17:22:18.664Z,99868.75
2022-07-31T17:24:51.976Z,99876.50
2022-07-31T17:27:24.742Z,99884.69
2022-07-31T17:29:55.939Z,99882.31
2022-07-31T17:32:30.179Z,99885.25
2022-07-31T17:35:03.289Z,99886.94
2022-07-31T17:37:33.785Z,99886.13
2022-07-31T17:40:21.544Z,99893.44
2022-07-31T17:42:57.493Z,99895.94
2022-07-31T17:45:50.843Z,99895.56
2022-07-31T17:48:22.997Z,99900.13
2022-07-31T17:50:56.603Z,99903.88
2022-07-31T17:53:31.237Z,99901.09
2022-07-31T17:56:22.410Z,99902.03
2022-07-31T17:59:13.692Z,99908.97
2022-07-31T18:02:23.169Z,99902.44
2022-07-31T18:04:54.105Z,99906.22
2022-07-31T18:07:30.130Z,99917.94
2022-07-31T18:10:03.667Z,99907.44
2022-07-31T18:12:57.280Z,99923.38
2022-07-31T18:15:36.007Z,99922.22
2022-07-31T18:18:07.795Z,99925.88
2022-07-31T18:20:38.837Z,99924.66
2022-07-31T18:23:14.405Z,99914.81
2022-07-31T18:25:50.055Z,99919.28
2022-07-31T18:28:22.708Z,99917.25
2022-07-31T18:31:30.780Z,99914.41
2022-07-31T18:33:59.450Z,99910.72
2022-07-31T18:36:33.504Z,99916.44
2022-07-31T18:39:14.378Z,99924.66
2022-07-31T18:41:48.898Z,99920.19
2022-07-31T18:44:21.944Z,99929.53
2022-07-31T18:46:59.384Z,99915.72
2022-07-31T18:50:59.294Z,99924.34
2022-07-31T18:52:28.297Z,99933.41
2022-07-31T18:55:02.744Z,99930.28
2022-07-31T18:57:37.826Z,99932.75
2022-07-31T19:00:12.572Z,99931.16
2022-07-31T19:03:08.965Z,99931.59
2022-07-31T19:05:40.825Z,99930.91
2022-07-31T19:08:23.182Z,99923.94
2022-07-31T19:10:56.547Z,99933.75
2022-07-31T19:13:30.198Z,99932.47
2022-07-31T19:16:02.028Z,99938.63
2022-07-31T19:18:32.724Z,99935.78
2022-07-31T19:21:23.453Z,99932.16
2022-07-31T19:23:54.892Z,99933.81
2022-07-31T19:26:27.551Z,99938.28
2022-07-31T19:29:00.479Z,99941.13
2022-07-31T19:31:31.214Z,99935.00
2022-07-31T19:34:03.066Z,99931.31
2022-07-31T19:36:33.561Z,99939.88
2022-07-31T19:39:04.306Z,99937.84
2022-07-31T19:41:37.931Z,99934.19
2022-07-31T19:44:09.693Z,99935.00
2022-07-31T19:46:40.492Z,99930.91
2022-07-31T19:49:11.866Z,99934.53
2022-07-31T19:51:42.485Z,99926.00
2022-07-31T19:54:12.898Z,99932.16
2022-07-31T19:56:45.843Z,99925.63
2022-07-31T19:59:18.948Z,99932.56
2022-07-31T20:01:50.324Z,99926.88
2022-07-31T20:04:21.171Z,99932.25
2022-07-31T20:06:53.084Z,99935.50
2022-07-31T20:09:25.921Z,99926.59
2022-07-31T20:12:10.103Z,99929.44
2022-07-31T20:15:24.094Z,99924.97
2022-07-31T20:17:55.061Z,99919.28
2022-07-31T20:20:26.222Z,99914.84
2022-07-31T20:22:57.718Z,99905.50
2022-07-31T20:25:42.464Z,99908.34
2022-07-31T20:28:16.001Z,99910.41
2022-07-31T20:30:47.480Z,99915.72
2022-07-31T20:33:20.912Z,99912.06
2022-07-31T20:35:58.352Z,99899.44
2022-07-31T20:38:29.751Z,99905.50
2022-07-31T20:41:01.471Z,99902.66
2022-07-31T20:43:36.436Z,99902.28
2022-07-31T20:46:14.081Z,99898.19
2022-07-31T20:48:48.189Z,99899.44
2022-07-31T20:51:23.754Z,99898.63
2022-07-31T20:54:00.539Z,99906.38
2022-07-31T20:56:32.729Z,99901.50
2022-07-31T20:59:18.697Z,99897.81
2022-07-31T21:01:55.161Z,99899.88
2022-07-31T21:04:44.125Z,99903.53
2022-07-31T21:07:14.603Z,99899.88
2022-07-31T21:09:45.603Z,99899.88
2022-07-31T21:12:22.901Z,99897.81
2022-07-31T21:14:55.916Z,99905.13
2022-07-31T21:17:28.171Z,99907.97
2022-07-31T21:20:08.915Z,99895.34
2022-07-31T21:22:42.420Z,99903.88
2022-07-31T21:28:15.653Z,99892.50
2022-07-31T21:30:47.940Z,99889.63
2022-07-31T21:33:19.538Z,99894.56
2022-07-31T21:35:52.051Z,99893.31
2022-07-31T21:38:23.823Z,99883.16
2022-07-31T21:40:56.298Z,99880.31
2022-07-31T21:43:33.486Z,99879.06
2022-07-31T21:46:26.393Z,99877.09
2022-07-31T21:49:01.504Z,99871.03
2022-07-31T21:51:33.540Z,99874.34
2022-07-31T21:54:04.192Z,99866.22
2022-07-31T21:56:34.996Z,99866.66
2022-07-31T21:59:08.494Z,99868.72
2022-07-31T22:01:40.373Z,99869.16
2022-07-31T22:04:34.344Z,99860.25
2022-07-31T22:07:24.560Z,99858.66
2022-07-31T22:09:56.169Z,99852.97
2022-07-31T22:12:26.954Z,99847.25
2022-07-31T22:14:59.746Z,99848.88
2022-07-31T22:17:30.916Z,99844.41
2022-07-31T22:20:02.982Z,99847.25
2022-07-31T22:22:34.005Z,99850.91
2022-07-31T22:25:07.264Z,99846.44
2022-07-31T22:27:56.267Z,99848.50
2022-07-31T22:30:32.444Z,99850.97
2022-07-31T22:33:06.109Z,99848.94
2022-07-31T22:35:37.230Z,99842.88
2022-07-31T22:38:07.740Z,99843.66
2022-07-31T22:40:40.134Z,99855.03
2022-07-31T22:44:11.250Z,99845.34
2022-07-31T22:46:08.147Z,99850.69
2022-07-31T22:48:41.745Z,99846.22
2022-07-31T22:51:15.139Z,99852.38
2022-07-31T22:53:48.795Z,99851.22
2022-07-31T22:56:20.664Z,99847.53
2022-07-31T22:58:51.819Z,99852.44
2022-07-31T23:01:25.573Z,99852.50
2022-07-31T23:03:56.944Z,99847.72
2022-07-31T23:06:31.688Z,99846.09
2022-07-31T23:09:04.440Z,99842.09
2022-07-31T23:11:35.835Z,99842.53
2022-07-31T23:14:06.937Z,99840.91
2022-07-31T23:16:39.053Z,99849.47
2022-07-31T23:19:10.538Z,99842.63
2022-07-31T23:21:41.665Z,99830.84
2022-07-31T23:24:13.532Z,99847.16
2022-07-31T23:26:44.746Z,99843.16
2022-07-31T23:29:15.707Z,99851.31
2022-07-31T23:31:48.876Z,99846.50
2022-07-31T23:34:20.407Z,99846.56
2022-07-31T23:36:51.314Z,99843.38
2022-07-31T23:39:23.514Z,99846.66
2022-07-31T23:42:10.487Z,99848.34
2022-07-31T23:44:41.501Z,99842.72
2022-07-31T23:47:19.420Z,99838.28
2022-07-31T23:49:50.454Z,99843.16
2022-07-31T23:52:21.390Z,99842.38
2022-07-31T23:54:52.404Z,99836.28
2022-07-31T23:57:23.235Z,99843.19
2022-07-31T23:59:54.087Z,99831.44
